createdAt,value
2018-12-31T00:00:42.016Z,4.13
2018-12-31T00:03:13.950Z,4.17
2018-12-31T00:05:45.669Z,3.50
2018-12-31T00:08:18.576Z,3.60
2018-12-31T00:10:49.957Z,3.03
2018-12-31T00:13:21.627Z,2.90
2018-12-31T00:15:53.109Z,3.30
2018-12-31T00:18:33.766Z,3.17
2018-12-31T00:21:05.549Z,2.93
2018-12-31T00:23:37.601Z,2.70
2018-12-31T00:26:12.955Z,3.10
2018-12-31T00:28:44.917Z,3.70
2018-12-31T00:31:16.577Z,5.50
2018-12-31T00:33:48.443Z,14.57
2018-12-31T00:36:20.784Z,5.20
2018-12-31T00:38:52.184Z,4.93
2018-12-31T00:41:23.623Z,3.10
2018-12-31T00:43:55.004Z,3.80
2018-12-31T00:46:26.869Z,2.83
2018-12-31T00:48:58.430Z,3.00
2018-12-31T00:51:30.302Z,2.23
2018-12-31T00:54:01.955Z,3.17
2018-12-31T00:56:33.576Z,2.90
2018-12-31T00:59:05.256Z,2.47
2018-12-31T01:01:36.743Z,2.63
2018-12-31T01:04:08.103Z,2.83
2018-12-31T01:06:39.645Z,3.10
2018-12-31T01:09:11.040Z,2.47
2018-12-31T01:11:42.418Z,2.67
2018-12-31T01:14:14.080Z,2.70
2018-12-31T01:16:47.947Z,3.67
2018-12-31T01:19:19.312Z,2.60
2018-12-31T01:21:51.053Z,3.20
2018-12-31T01:24:22.430Z,3.10
2018-12-31T01:27:00.968Z,3.00
2018-12-31T01:29:32.332Z,3.20
2018-12-31T01:32:03.734Z,2.83
2018-12-31T01:34:35.551Z,2.27
2018-12-31T01:37:08.363Z,2.80
2018-12-31T01:39:40.339Z,3.67
2018-12-31T01:42:12.147Z,2.20
2018-12-31T01:44:44.012Z,2.07
2018-12-31T01:47:15.830Z,2.10
2018-12-31T01:49:47.494Z,2.30
2018-12-31T01:52:20.180Z,2.20
2018-12-31T01:54:51.914Z,2.13
2018-12-31T01:57:23.607Z,2.80
2018-12-31T01:59:55.040Z,2.07
2018-12-31T02:02:26.395Z,3.13
2018-12-31T02:04:58.054Z,2.40
2018-12-31T02:07:29.561Z,1.90
2018-12-31T02:10:01.243Z,2.40
2018-12-31T02:12:33.481Z,2.27
2018-12-31T02:15:05.605Z,1.90
2018-12-31T02:17:37.044Z,1.67
2018-12-31T02:20:08.779Z,1.70
2018-12-31T02:22:40.537Z,2.03
2018-12-31T02:25:12.106Z,4.23
2018-12-31T02:27:44.172Z,2.33
2018-12-31T02:30:15.477Z,2.03
2018-12-31T02:32:47.528Z,2.20
2018-12-31T02:35:19.038Z,3.50
2018-12-31T02:37:51.090Z,7.27
2018-12-31T02:40:22.289Z,12.90
2018-12-31T02:42:54.153Z,11.17
2018-12-31T02:45:25.702Z,8.87
2018-12-31T02:47:57.435Z,10.43
2018-12-31T02:50:29.255Z,5.23
2018-12-31T02:53:00.665Z,2.10
2018-12-31T02:55:32.006Z,2.30
2018-12-31T02:58:03.650Z,2.27
2018-12-31T03:00:35.631Z,1.90
2018-12-31T03:03:06.928Z,1.90
2018-12-31T03:05:38.452Z,1.87
2018-12-31T03:08:15.276Z,1.83
2018-12-31T03:10:47.038Z,1.57
2018-12-31T03:13:18.564Z,2.40
2018-12-31T03:15:50.059Z,1.90
2018-12-31T03:18:21.658Z,1.73
2018-12-31T03:20:53.164Z,1.80
2018-12-31T03:23:24.855Z,1.77
2018-12-31T03:25:56.203Z,1.90
2018-12-31T03:28:27.860Z,1.40
2018-12-31T03:30:59.651Z,2.23
2018-12-31T03:33:31.359Z,1.90
2018-12-31T03:36:03.878Z,1.33
2018-12-31T03:38:35.954Z,1.70
2018-12-31T03:41:07.593Z,2.10
2018-12-31T03:43:39.245Z,1.70
2018-12-31T03:46:10.557Z,1.20
2018-12-31T03:48:41.978Z,1.33
2018-12-31T03:51:13.443Z,1.80
2018-12-31T03:53:45.785Z,1.83
2018-12-31T03:56:17.647Z,1.50
2018-12-31T03:58:49.116Z,1.40
2018-12-31T04:01:20.850Z,1.80
2018-12-31T04:03:52.518Z,1.80
2018-12-31T04:06:24.135Z,1.67
2018-12-31T04:08:55.726Z,1.73
2018-12-31T04:11:30.297Z,1.23
2018-12-31T04:14:01.890Z,2.37
2018-12-31T04:16:34.042Z,1.83
2018-12-31T04:19:05.516Z,1.80
2018-12-31T04:21:37.078Z,1.93
2018-12-31T04:24:08.602Z,1.50
2018-12-31T04:26:40.056Z,1.30
2018-12-31T04:29:11.630Z,1.30
2018-12-31T04:31:43.208Z,1.60
2018-12-31T04:34:14.750Z,1.63
2018-12-31T04:36:54.585Z,2.03
2018-12-31T04:39:26.066Z,1.60
2018-12-31T04:41:58.005Z,2.10
2018-12-31T04:44:29.424Z,1.97
2018-12-31T04:47:01.092Z,1.43
2018-12-31T04:49:33.208Z,1.60
2018-12-31T04:52:05.479Z,2.03
2018-12-31T04:54:37.002Z,1.70
2018-12-31T04:57:08.879Z,2.07
2018-12-31T04:59:40.294Z,2.43
2018-12-31T05:02:12.070Z,1.87
2018-12-31T05:04:43.885Z,2.30
2018-12-31T05:07:15.887Z,2.87
2018-12-31T05:09:47.505Z,2.37
2018-12-31T05:12:19.347Z,2.77
2018-12-31T05:14:50.813Z,2.87
2018-12-31T05:17:23.534Z,2.53
2018-12-31T05:20:00.094Z,2.90
2018-12-31T05:22:32.678Z,3.07
2018-12-31T05:25:04.136Z,2.83
2018-12-31T05:27:36.174Z,2.57
2018-12-31T05:30:07.771Z,3.43
2018-12-31T05:32:39.458Z,5.20
2018-12-31T05:35:11.122Z,12.07
2018-12-31T05:37:45.138Z,6.53
2018-12-31T05:40:16.855Z,5.50
2018-12-31T05:42:50.853Z,4.90
2018-12-31T05:45:21.903Z,3.53
2018-12-31T05:47:53.224Z,6.30
2018-12-31T05:50:24.898Z,4.90
2018-12-31T05:52:56.434Z,6.37
2018-12-31T05:55:28.173Z,5.07
2018-12-31T05:58:00.106Z,4.10
2018-12-31T06:00:32.113Z,3.70
2018-12-31T06:03:03.453Z,3.43
2018-12-31T06:05:35.292Z,4.20
2018-12-31T06:08:09.403Z,3.90
2018-12-31T06:10:40.731Z,3.93
2018-12-31T06:13:12.205Z,2.90
2018-12-31T06:15:43.827Z,2.77
2018-12-31T06:18:20.736Z,3.07
2018-12-31T06:20:52.476Z,2.30
2018-12-31T06:23:23.938Z,2.90
2018-12-31T06:25:55.836Z,2.70
2018-12-31T06:28:28.050Z,2.20
2018-12-31T06:30:59.815Z,2.40
2018-12-31T06:33:31.302Z,2.70
2018-12-31T06:36:04.844Z,3.40
2018-12-31T06:38:39.105Z,3.47
2018-12-31T06:41:10.930Z,2.87
2018-12-31T06:43:43.166Z,3.07
2018-12-31T06:46:14.789Z,3.67
2018-12-31T06:48:46.584Z,3.57
2018-12-31T06:51:18.219Z,4.03
2018-12-31T06:53:49.697Z,3.67
2018-12-31T06:56:21.394Z,5.77
2018-12-31T06:58:52.810Z,4.93
2018-12-31T07:01:24.240Z,5.93
2018-12-31T07:03:57.320Z,5.23
2018-12-31T07:06:34.796Z,4.33
2018-12-31T07:09:08.003Z,4.30
2018-12-31T07:11:39.253Z,4.80
2018-12-31T07:14:10.639Z,5.27
2018-12-31T07:16:42.060Z,4.97
2018-12-31T07:19:14.031Z,5.37
2018-12-31T07:21:45.805Z,5.10
2018-12-31T07:24:17.334Z,5.57
2018-12-31T07:26:54.330Z,7.03
2018-12-31T07:29:26.248Z,9.00
2018-12-31T07:31:57.760Z,8.87
2018-12-31T07:34:30.475Z,7.60
2018-12-31T07:37:07.356Z,6.80
2018-12-31T07:39:39.187Z,6.40
2018-12-31T07:42:10.683Z,5.20
2018-12-31T07:44:42.764Z,5.30
2018-12-31T07:47:14.799Z,5.90
2018-12-31T07:49:46.979Z,6.70
2018-12-31T07:52:18.902Z,5.83
2018-12-31T07:54:50.887Z,7.30
2018-12-31T07:57:23.106Z,6.30
2018-12-31T07:59:54.712Z,6.60
2018-12-31T08:02:26.333Z,6.40
2018-12-31T08:04:58.360Z,6.33
2018-12-31T08:07:31.274Z,5.60
2018-12-31T08:10:03.097Z,5.87
2018-12-31T08:12:35.038Z,5.50
2018-12-31T08:15:08.319Z,6.20
2018-12-31T08:17:41.362Z,6.50
2018-12-31T08:20:13.375Z,6.87
2018-12-31T08:22:45.124Z,6.33
2018-12-31T08:25:16.809Z,5.40
2018-12-31T08:27:48.626Z,6.07
2018-12-31T08:30:20.093Z,7.07
2018-12-31T08:32:51.544Z,7.30
2018-12-31T08:35:23.132Z,7.23
2018-12-31T08:38:03.860Z,6.93
2018-12-31T08:40:37.427Z,7.50
2018-12-31T08:43:09.468Z,9.40
2018-12-31T08:45:43.956Z,9.50
2018-12-31T08:48:15.944Z,8.70
2018-12-31T08:50:47.889Z,7.53
2018-12-31T08:53:19.699Z,6.73
2018-12-31T08:55:53.081Z,7.47
2018-12-31T08:58:24.711Z,4.70
2018-12-31T09:00:57.707Z,6.53
2018-12-31T09:03:29.982Z,5.20
2018-12-31T09:06:04.838Z,5.53
2018-12-31T09:08:36.913Z,4.87
2018-12-31T09:11:08.337Z,4.10
2018-12-31T09:13:42.556Z,4.50
2018-12-31T09:16:14.534Z,6.23
2018-12-31T09:18:49.574Z,6.13
2018-12-31T09:21:21.347Z,5.30
2018-12-31T09:23:55.696Z,5.33
2018-12-31T09:26:36.944Z,5.30
2018-12-31T09:29:08.862Z,6.03
2018-12-31T09:31:42.009Z,8.73
2018-12-31T09:34:14.972Z,10.53
2018-12-31T09:36:50.358Z,14.67
2018-12-31T09:39:21.652Z,6.80
2018-12-31T09:41:53.443Z,7.03
2018-12-31T09:44:25.061Z,8.33
2018-12-31T09:46:59.830Z,6.70
2018-12-31T09:49:31.828Z,6.50
2018-12-31T09:52:03.599Z,9.73
2018-12-31T09:54:35.350Z,6.77
2018-12-31T09:57:06.876Z,6.10
2018-12-31T09:59:38.506Z,4.90
2018-12-31T10:02:10.900Z,3.90
2018-12-31T10:04:43.926Z,5.37
2018-12-31T10:07:18.979Z,5.80
2018-12-31T10:09:50.696Z,6.70
2018-12-31T10:12:22.419Z,9.00
2018-12-31T10:14:54.579Z,9.70
2018-12-31T10:17:26.519Z,6.57
2018-12-31T10:19:58.261Z,6.60
2018-12-31T10:22:30.401Z,5.17
2018-12-31T10:25:01.999Z,4.60
2018-12-31T10:27:34.502Z,5.37
2018-12-31T10:30:06.523Z,5.03
2018-12-31T10:32:38.060Z,3.97
2018-12-31T10:35:09.445Z,5.27
2018-12-31T10:37:41.170Z,6.00
2018-12-31T10:40:13.079Z,5.27
2018-12-31T10:42:45.222Z,3.87
2018-12-31T10:45:17.144Z,3.43
2018-12-31T10:47:48.886Z,3.30
2018-12-31T10:50:20.534Z,3.27
2018-12-31T10:52:52.370Z,3.20
2018-12-31T10:55:23.860Z,3.10
2018-12-31T10:57:56.204Z,3.37
2018-12-31T11:00:28.249Z,2.87
2018-12-31T11:03:00.199Z,3.50
2018-12-31T11:05:32.261Z,2.83
2018-12-31T11:08:06.659Z,2.63
2018-12-31T11:10:38.434Z,2.30
2018-12-31T11:13:10.009Z,2.57
2018-12-31T11:15:41.379Z,3.30
2018-12-31T11:18:13.324Z,2.87
2018-12-31T11:20:45.180Z,2.73
2018-12-31T11:23:16.984Z,2.10
2018-12-31T11:25:48.428Z,2.47
2018-12-31T11:28:20.220Z,2.20
2018-12-31T11:30:51.784Z,2.80
2018-12-31T11:33:23.443Z,2.50
2018-12-31T11:35:55.082Z,2.90
2018-12-31T11:38:30.895Z,2.37
2018-12-31T11:41:04.139Z,2.60
2018-12-31T11:43:36.351Z,2.73
2018-12-31T11:46:10.472Z,2.40
2018-12-31T11:48:42.232Z,3.03
2018-12-31T11:51:14.374Z,3.47
2018-12-31T11:53:47.704Z,3.57
2018-12-31T11:56:19.696Z,2.30
2018-12-31T11:58:52.288Z,2.37
2018-12-31T12:01:24.356Z,2.23
2018-12-31T12:03:56.623Z,2.70
2018-12-31T12:06:28.999Z,2.20
2018-12-31T12:09:00.925Z,2.60
2018-12-31T12:11:32.814Z,2.00
2018-12-31T12:14:04.543Z,2.80
2018-12-31T12:16:38.847Z,2.70
2018-12-31T12:19:13.854Z,2.70
2018-12-31T12:21:46.946Z,3.60
2018-12-31T12:24:19.002Z,3.57
2018-12-31T12:26:51.537Z,3.77
2018-12-31T12:29:26.706Z,5.47
2018-12-31T12:32:00.248Z,3.80
2018-12-31T12:34:33.822Z,4.00
2018-12-31T12:37:08.898Z,2.40
2018-12-31T12:39:41.185Z,4.17
2018-12-31T12:42:13.347Z,4.17
2018-12-31T12:44:45.903Z,3.70
2018-12-31T12:47:18.153Z,4.60
2018-12-31T12:49:50.045Z,5.70
2018-12-31T12:52:23.521Z,6.77
2018-12-31T12:54:55.258Z,5.07
2018-12-31T12:57:26.933Z,5.50
2018-12-31T12:59:58.899Z,7.33
2018-12-31T13:02:31.252Z,7.73
2018-12-31T13:05:03.744Z,8.60
2018-12-31T13:07:36.101Z,8.53
2018-12-31T13:10:07.757Z,9.40
2018-12-31T13:12:41.259Z,5.20
2018-12-31T13:15:14.360Z,4.00
2018-12-31T13:17:46.372Z,4.87
2018-12-31T13:20:17.925Z,4.67
2018-12-31T13:22:50.221Z,3.77
2018-12-31T13:25:21.767Z,5.23
2018-12-31T13:27:54.002Z,4.80
2018-12-31T13:30:25.607Z,3.83
2018-12-31T13:32:57.167Z,4.47
2018-12-31T13:35:28.654Z,4.33
2018-12-31T13:38:00.503Z,4.23
2018-12-31T13:40:32.183Z,4.20
2018-12-31T13:43:04.085Z,3.57
2018-12-31T13:45:35.760Z,3.83
2018-12-31T13:48:07.827Z,3.30
2018-12-31T13:50:39.512Z,3.50
2018-12-31T13:53:11.667Z,3.50
2018-12-31T13:55:43.525Z,3.43
2018-12-31T13:58:15.439Z,3.40
2018-12-31T14:00:46.833Z,4.17
2018-12-31T14:03:19.694Z,4.70
2018-12-31T14:05:51.810Z,4.67
2018-12-31T14:08:23.884Z,5.67
2018-12-31T14:10:55.915Z,6.70
2018-12-31T14:13:28.990Z,6.60
2018-12-31T14:16:00.479Z,6.57
2018-12-31T14:18:32.209Z,5.93
2018-12-31T14:21:04.065Z,7.83
2018-12-31T14:23:35.853Z,7.57
2018-12-31T14:26:07.738Z,6.87
2018-12-31T14:28:39.629Z,8.20
2018-12-31T14:31:11.221Z,7.87
2018-12-31T14:33:43.354Z,10.93
2018-12-31T14:36:14.965Z,14.27
2018-12-31T14:38:47.038Z,14.57
2018-12-31T14:41:19.097Z,13.13
2018-12-31T14:43:50.670Z,14.00
2018-12-31T14:46:23.093Z,13.80
2018-12-31T14:48:54.656Z,17.40
2018-12-31T14:51:26.870Z,20.43
2018-12-31T14:53:59.075Z,23.87
2018-12-31T14:56:30.882Z,24.33
2018-12-31T14:59:02.688Z,19.67
2018-12-31T15:01:34.984Z,17.90
2018-12-31T15:04:06.764Z,17.87
2018-12-31T15:06:44.200Z,17.23
2018-12-31T15:09:15.565Z,15.13
2018-12-31T15:11:48.314Z,10.20
2018-12-31T15:14:20.580Z,9.40
2018-12-31T15:16:52.733Z,12.03
2018-12-31T15:19:24.684Z,13.03
2018-12-31T15:21:56.673Z,13.53
2018-12-31T15:24:28.480Z,12.80
2018-12-31T15:27:06.213Z,13.60
2018-12-31T15:29:38.233Z,15.47
2018-12-31T15:32:09.991Z,17.27
2018-12-31T15:34:42.857Z,16.87
2018-12-31T15:37:15.708Z,17.03
2018-12-31T15:39:48.176Z,15.57
2018-12-31T15:42:23.460Z,15.30
2018-12-31T15:44:55.153Z,16.37
2018-12-31T15:47:26.821Z,22.43
2018-12-31T15:49:58.909Z,25.63
2018-12-31T15:52:34.965Z,27.37
2018-12-31T15:55:07.099Z,20.80
2018-12-31T15:57:38.914Z,15.77
2018-12-31T16:00:11.249Z,18.77
2018-12-31T16:02:43.591Z,17.60
2018-12-31T16:05:15.513Z,16.37
2018-12-31T16:07:53.343Z,16.90
2018-12-31T16:10:24.793Z,17.93
2018-12-31T16:12:56.265Z,18.97
2018-12-31T16:15:30.686Z,21.37
2018-12-31T16:18:08.316Z,18.73
2018-12-31T16:20:40.442Z,18.20
2018-12-31T16:23:12.642Z,23.13
2018-12-31T16:25:44.955Z,27.00
2018-12-31T16:28:16.740Z,26.87
2018-12-31T16:30:48.736Z,24.63
2018-12-31T16:33:20.606Z,24.93
2018-12-31T16:35:52.581Z,20.80
2018-12-31T16:38:24.568Z,25.57
2018-12-31T16:40:56.330Z,24.23
2018-12-31T16:43:28.830Z,24.13
2018-12-31T16:46:08.024Z,19.00
2018-12-31T16:48:39.951Z,17.23
2018-12-31T16:51:14.250Z,14.10
2018-12-31T16:53:45.865Z,14.07
2018-12-31T16:56:17.825Z,15.77
2018-12-31T16:58:49.583Z,16.57
2018-12-31T17:01:21.732Z,16.87
2018-12-31T17:03:53.386Z,19.23
2018-12-31T17:06:24.784Z,21.27
2018-12-31T17:08:56.118Z,20.87
2018-12-31T17:11:27.701Z,19.23
2018-12-31T17:13:59.218Z,22.10
2018-12-31T17:16:30.716Z,22.93
2018-12-31T17:19:02.662Z,21.37
2018-12-31T17:21:34.147Z,21.33
2018-12-31T17:24:05.562Z,18.47
2018-12-31T17:26:37.339Z,19.80
2018-12-31T17:29:09.350Z,20.67
2018-12-31T17:31:40.933Z,20.30
2018-12-31T17:34:12.805Z,17.90
2018-12-31T17:36:44.903Z,17.50
2018-12-31T17:39:17.037Z,17.20
2018-12-31T17:41:49.156Z,15.97
2018-12-31T17:44:21.171Z,14.80
2018-12-31T17:46:54.471Z,15.50
2018-12-31T17:49:26.586Z,14.83
2018-12-31T17:51:58.480Z,12.90
2018-12-31T17:54:33.616Z,16.13
2018-12-31T17:57:07.068Z,15.80
2018-12-31T17:59:38.898Z,11.53
2018-12-31T18:02:14.335Z,11.77
2018-12-31T18:04:47.125Z,11.53
2018-12-31T18:07:20.443Z,12.57
2018-12-31T18:09:55.609Z,11.53
2018-12-31T18:12:30.254Z,10.33
2018-12-31T18:15:02.349Z,9.97
2018-12-31T18:17:39.330Z,10.60
2018-12-31T18:20:13.229Z,10.03
2018-12-31T18:22:48.728Z,10.13
2018-12-31T18:25:22.211Z,9.67
2018-12-31T18:27:59.732Z,7.23
2018-12-31T18:30:31.818Z,6.90
2018-12-31T18:33:05.614Z,7.97
2018-12-31T18:35:40.947Z,6.57
2018-12-31T18:38:23.153Z,5.93
2018-12-31T18:40:55.389Z,5.90
2018-12-31T18:43:27.065Z,5.80
2018-12-31T18:46:01.483Z,5.93
2018-12-31T18:48:36.852Z,5.90
2018-12-31T18:51:08.815Z,5.70
2018-12-31T18:53:40.225Z,5.67
2018-12-31T18:56:11.759Z,5.10
2018-12-31T18:58:44.214Z,4.50
2018-12-31T19:01:19.034Z,4.63
2018-12-31T19:03:54.069Z,4.47
2018-12-31T19:06:26.162Z,4.80
2018-12-31T19:09:00.769Z,4.53
2018-12-31T19:11:33.228Z,6.00
2018-12-31T19:14:04.833Z,5.87
2018-12-31T19:16:37.172Z,6.13
2018-12-31T19:19:08.911Z,5.50
2018-12-31T19:21:40.861Z,5.90
2018-12-31T19:24:13.883Z,6.27
2018-12-31T19:26:46.108Z,6.77
2018-12-31T19:29:18.202Z,5.60
2018-12-31T19:31:51.227Z,6.03
2018-12-31T19:34:23.280Z,6.80
2018-12-31T19:37:00.499Z,7.07
2018-12-31T19:39:32.828Z,7.47
2018-12-31T19:42:07.188Z,7.70
2018-12-31T19:44:39.162Z,7.50
2018-12-31T19:47:11.544Z,7.07
2018-12-31T19:49:46.708Z,8.40
2018-12-31T19:52:19.652Z,7.87
2018-12-31T19:54:52.027Z,9.30
2018-12-31T19:57:29.623Z,9.37
2018-12-31T20:00:05.949Z,10.60
2018-12-31T20:02:50.455Z,10.90
2018-12-31T20:05:29.909Z,11.90
2018-12-31T20:08:10.653Z,11.40
2018-12-31T20:10:49.433Z,9.87
2018-12-31T20:13:21.471Z,10.17
2018-12-31T20:15:56.584Z,10.93
2018-12-31T20:18:30.915Z,9.87
2018-12-31T20:21:06.753Z,10.37
2018-12-31T20:23:38.481Z,9.87
2018-12-31T20:26:10.811Z,10.17
2018-12-31T20:28:45.787Z,9.43
2018-12-31T20:31:20.778Z,9.40
2018-12-31T20:33:58.934Z,9.67
2018-12-31T20:36:31.094Z,10.63
2018-12-31T20:39:05.648Z,9.40
2018-12-31T20:41:37.798Z,9.87
2018-12-31T20:44:10.111Z,9.27
2018-12-31T20:46:46.463Z,9.07
2018-12-31T20:49:21.737Z,9.57
2018-12-31T20:51:57.066Z,9.37
2018-12-31T20:54:33.264Z,9.30
2018-12-31T20:57:06.963Z,9.57
2018-12-31T20:59:40.690Z,9.03
2018-12-31T21:02:15.480Z,10.43
2018-12-31T21:04:47.452Z,8.63
2018-12-31T21:07:21.326Z,8.60
2018-12-31T21:09:53.294Z,8.23
2018-12-31T21:12:26.242Z,7.93
2018-12-31T21:14:58.102Z,8.47
2018-12-31T21:17:36.084Z,8.40
2018-12-31T21:20:08.699Z,7.60
2018-12-31T21:22:47.075Z,6.63
2018-12-31T21:25:19.350Z,6.63
2018-12-31T21:27:54.815Z,6.43
2018-12-31T21:30:29.207Z,5.30
2018-12-31T21:33:04.304Z,6.40
2018-12-31T21:35:41.899Z,6.53
2018-12-31T21:38:14.265Z,5.87
2018-12-31T21:40:50.523Z,5.80
2018-12-31T21:43:26.662Z,6.47
2018-12-31T21:46:04.032Z,6.93
2018-12-31T21:48:37.936Z,7.17
2018-12-31T21:51:13.162Z,7.07
2018-12-31T21:53:45.538Z,6.73
2018-12-31T21:56:17.752Z,8.40
2018-12-31T21:58:51.935Z,8.67
2018-12-31T22:01:24.288Z,7.73
2018-12-31T22:03:59.861Z,7.60
2018-12-31T22:06:33.830Z,7.03
2018-12-31T22:09:08.155Z,8.10
2018-12-31T22:11:40.535Z,6.53
2018-12-31T22:14:20.481Z,7.60
2018-12-31T22:16:58.269Z,7.90
2018-12-31T22:19:33.613Z,7.20
2018-12-31T22:22:05.848Z,7.17
2018-12-31T22:24:41.327Z,6.93
2018-12-31T22:27:14.134Z,7.60
2018-12-31T22:29:46.334Z,7.93
2018-12-31T22:32:18.415Z,8.00
2018-12-31T22:34:52.804Z,8.20
2018-12-31T22:37:28.452Z,8.63
2018-12-31T22:40:00.278Z,7.73
2018-12-31T22:42:34.816Z,8.30
2018-12-31T22:45:08.131Z,8.43
2018-12-31T22:47:45.892Z,9.33
2018-12-31T22:50:19.120Z,8.90
2018-12-31T22:52:53.191Z,9.07
2018-12-31T22:55:25.526Z,10.43
2018-12-31T22:58:02.110Z,10.50
2018-12-31T23:00:39.112Z,13.83
2018-12-31T23:03:11.783Z,12.43
2018-12-31T23:05:45.989Z,13.03
2018-12-31T23:08:19.945Z,12.30
2018-12-31T23:10:52.434Z,15.80
2018-12-31T23:13:24.370Z,18.90
2018-12-31T23:15:59.337Z,19.87
2018-12-31T23:18:34.643Z,25.40
2018-12-31T23:21:06.619Z,27.10
2018-12-31T23:23:41.673Z,26.80
2018-12-31T23:26:13.419Z,23.63
2018-12-31T23:28:52.547Z,24.50
2018-12-31T23:31:20.519Z,22.97
2018-12-31T23:33:51.864Z,22.40
2018-12-31T23:36:23.429Z,18.03
2018-12-31T23:38:55.366Z,21.53
2018-12-31T23:41:26.897Z,15.30
2018-12-31T23:43:58.715Z,19.73
2018-12-31T23:46:30.387Z,15.37
2018-12-31T23:49:02.245Z,14.13
2018-12-31T23:51:33.637Z,14.43
2018-12-31T23:54:05.173Z,15.23
2018-12-31T23:56:36.881Z,15.23
2018-12-31T23:59:08.250Z,15.10
